createdAt,value
2022-11-28T20:11:14.084Z,10.52
2022-11-28T20:14:10.205Z,11.95
2022-11-28T20:16:55.618Z,12.90
2022-11-28T20:19:42.078Z,13.84
2022-11-28T20:40:51.171Z,4.93
2022-11-28T20:43:38.405Z,4.71
2022-11-28T20:46:30.463Z,4.55
2022-11-28T20:49:16.296Z,4.39
2022-11-28T20:52:01.674Z,4.28
2022-11-28T20:54:47.096Z,4.20
2022-11-28T20:57:32.606Z,4.09
2022-11-28T21:00:21.232Z,4.06
2022-11-28T21:03:10.734Z,4.01
2022-11-28T21:06:00.891Z,4.03
2022-11-28T21:08:47.134Z,4.02
2022-11-28T21:11:55.729Z,4.02
2022-11-28T21:14:37.701Z,4.07
2022-11-28T21:17:23.171Z,4.11
2022-11-28T21:20:09.413Z,4.16
2022-11-28T21:22:55.679Z,4.13
2022-11-28T21:25:42.432Z,4.13
2022-11-28T21:28:27.799Z,4.16
2022-11-28T21:31:25.803Z,4.18
2022-11-28T21:34:14.481Z,4.16
2022-11-28T21:37:00.257Z,4.21
2022-11-28T21:39:46.239Z,4.15
2022-11-28T21:42:32.377Z,4.12
2022-11-28T21:45:18.570Z,4.16
2022-11-28T21:48:04.247Z,4.22
2022-11-28T21:50:51.356Z,4.29
2022-11-28T21:53:36.762Z,4.34
2022-11-28T21:56:22.320Z,4.37
2022-11-28T21:59:08.152Z,4.38
2022-11-28T22:01:54.234Z,4.42
2022-11-28T22:04:40.193Z,4.43
2022-11-28T22:07:25.959Z,4.45
2022-11-28T22:10:11.340Z,4.47
2022-11-28T22:12:57.987Z,4.46
2022-11-28T22:15:43.803Z,4.45
2022-11-28T22:18:30.094Z,4.44
2022-11-28T22:24:22.972Z,4.44
2022-11-28T22:27:08.546Z,4.37
2022-11-28T22:29:53.837Z,4.27
2022-11-28T22:32:39.286Z,4.26
2022-11-28T22:35:25.397Z,4.28
2022-11-28T22:38:12.666Z,4.31
2022-11-28T22:40:58.477Z,4.29
2022-11-28T22:43:46.092Z,4.38
2022-11-28T22:46:33.157Z,4.50
2022-11-28T22:49:19.074Z,4.65
2022-11-28T22:52:06.097Z,4.79
2022-11-28T22:54:51.648Z,4.92
2022-11-28T22:57:37.688Z,5.01
2022-11-28T23:00:23.061Z,5.10
2022-11-28T23:03:08.723Z,5.11
2022-11-28T23:05:54.481Z,5.05
2022-11-28T23:08:41.117Z,4.99
2022-11-28T23:11:29.571Z,4.91
2022-11-28T23:14:17.488Z,4.81
2022-11-28T23:17:02.989Z,4.66
2022-11-28T23:19:49.823Z,4.57
2022-11-28T23:22:35.824Z,4.48
2022-11-28T23:25:21.346Z,4.48
2022-11-28T23:28:07.435Z,4.60
2022-11-28T23:30:53.185Z,4.69
2022-11-28T23:33:39.451Z,4.83
2022-11-28T23:36:37.030Z,4.99
2022-11-28T23:39:26.929Z,5.10
2022-11-28T23:42:21.814Z,5.17
2022-11-28T23:45:08.003Z,5.30
2022-11-28T23:47:53.177Z,5.38
2022-11-28T23:50:38.366Z,5.38
2022-11-28T23:53:23.651Z,5.35
2022-11-28T23:56:12.834Z,5.30
2022-11-28T23:59:01.696Z,5.26
